YQG weather

Windsor Airport
Windsor, Ontario, Canada

Public forecast

Using degrees Celsius for public forecast. Weather courtesy of forecast.io.

Current aviation weather report (METAR) for Windsor Airport

Retrieved 2019/11/12 22:00 UTC (26 minutes ago):

CYQG 122200Z AUTO 30009G15KT 9SM CLR M05/M13 A3032 RMK SLP279

Aviation forecast (TAF) for Windsor Airport

Retrieved 2019/11/12 18:39 UTC (4 hours ago):

TAF CYQG 121738Z 1218/1318 31012G22KT P6SM SKC BECMG 1221/1223 30008KT FM131200 24005KT P6SM BKN160 FM131700 22012KT P6SM BKN015 OVC130 RMK FCST BASED ON AUTO OBS NXT FCST BY 130000Z